Impacts TAF Board
For situational awareness. Not to be used for flight planning purposes.
IDs:

KMCO - Orlando Intl, FL, US

Issued at 2107 UTC 19 Jan 2019
Updated at 2238 UTC 19 Jan 2019
Potential Impact None Slight Moderate High
Time2153Z 19/23Z 20/00Z 20/01Z 20/02Z 20/03Z 20/04Z 20/05Z 20/06Z 20/07Z 20/08Z 20/09Z 20/10Z 20/11Z>>
Type OBS PRVL PRVL PRVL PRVL PRVL PRVL PRVL PRVL PRVL PRVL PRVL PRVL PRVL
VIS 10 >6 >6 >6 >6 >6 >6 >6 >6 >6 >6 >6 >6 >6
CIG 250 250 250 250 250 60 60 60 40 40 40 40 40 40
Cover BKN BKN BKN BKN BKN OVC OVC OVC OVC OVC OVC OVC OVC OVC
FltCat VFR VFR VFR VFR VFR VFR VFR VFR VFR VFR VFR VFR VFR VFR
WX -- -- -- -- -- -- -- -- -RA VCTS -RA VCTS -RA VCTS -RA VCTS -RA VCTS -RA VCTS
WDir 180 180 180 180 180 180 180 180 210 210 210 210 210 210
WSpd 9 14 14 14 14 10 10 10 12 12 12 12 12 12
WGst -- -- -- -- -- -- -- -- -- -- -- -- -- --
Raw TAF
KMCO 192107Z 1921/2024 18014KT P6SM FEW040 BKN250
  FM200300 18010KT P6SM SCT030 OVC060
  FM200600 21012KT P6SM -RA VCTS SCT025CB OVC040 WS020/22035KT
  FM201200 27017G24KT P6SM BKN025 BKN100
  FM201800 27022G29KT P6SM SCT030 BKN200
  FM202300 30011KT P6SM SKC


Raw METAR
KMCO 192153Z 18009KT 10SM FEW050 FEW070 SCT080 BKN250 BKN300 25/12 A2991 RMK AO2 SLP127 T02500122
KMCO 192053Z 18015G19KT 10SM FEW060 FEW080 BKN250 25/11 A2992 RMK AO2 SLP131 T02500111 56024
KMCO 191953Z 18014KT 10SM FEW060 SCT250 26/12 A2994 RMK AO2 SLP136 T02610117

METAR Board
Radar Display
Forecast Discussion
For situational awareness. Not to be used for flight planning purposes.